Time;durP1;ratioP1;P1;durP2;ratioP2;P2;SDS_P1;SDS_P2;PMS_P1;PMS_P2;Temp;Humidity;BMP_temperature;BMP_pressure;BME280_temperature;BME280_humidity;BME280_pressure;Samples;Min_cycle;Max_cycle;Signal;HPM_P1;HPM_P2
2021/04/29 00:00:45;;;;;;;13.30;7.27;;;;;;;;;;12850713;23;20616;-75
2021/04/29 00:05:49;;;;;;;11.20;7.27;;;;;;;;;;12855356;22;20201;-75
2021/04/29 00:10:59;;;;;;;12.43;7.33;;;;;;;;;;12858714;23;20183;-75
2021/04/29 00:16:01;;;;;;;11.83;6.90;;;;;;;;;;12870614;23;20178;-75
2021/04/29 00:21:04;;;;;;;11.87;7.30;;;;;;;;;;12880154;23;20774;-75
2021/04/29 00:26:07;;;;;;;10.70;6.90;;;;;;;;;;12854737;23;20182;-75
2021/04/29 00:31:09;;;;;;;13.90;7.23;;;;;;;;;;12850777;23;20557;-75
2021/04/29 00:36:12;;;;;;;12.63;7.10;;;;;;;;;;12854614;23;20780;-75
2021/04/29 00:41:15;;;;;;;11.67;7.47;;;;;;;;;;12854274;23;20211;-75
2021/04/29 00:46:17;;;;;;;13.67;7.23;;;;;;;;;;12873997;23;20269;-73
2021/04/29 00:51:20;;;;;;;12.27;7.47;;;;;;;;;;12857344;23;20175;-74
2021/04/29 00:56:25;;;;;;;15.50;7.83;;;;;;;;;;12858057;23;20273;-75
2021/04/29 01:01:27;;;;;;;14.03;8.37;;;;;;;;;;12856150;22;20262;-74
2021/04/29 01:06:34;;;;;;;15.57;8.27;;;;;;;;;;12858627;23;20179;-75
2021/04/29 01:11:39;;;;;;;12.23;7.40;;;;;;;;;;12878442;23;20207;-75
2021/04/29 01:16:41;;;;;;;17.77;8.40;;;;;;;;;;12857150;23;20178;-75
2021/04/29 01:21:46;;;;;;;21.60;9.57;;;;;;;;;;12883416;23;20206;-76
2021/04/29 01:26:51;;;;;;;14.53;8.90;;;;;;;;;;12865558;23;20207;-74
2021/04/29 01:31:54;;;;;;;16.63;9.63;;;;;;;;;;12852693;23;20174;-74
2021/04/29 01:36:56;;;;;;;15.13;8.43;;;;;;;;;;12860994;23;20210;-75
2021/04/29 01:42:00;;;;;;;12.33;7.93;;;;;;;;;;12879680;23;20194;-75
2021/04/29 01:47:03;;;;;;;15.30;8.10;;;;;;;;;;12874305;23;20175;-74
2021/04/29 01:52:09;;;;;;;13.70;7.70;;;;;;;;;;12877817;23;20481;-74
2021/04/29 01:57:12;;;;;;;15.03;8.00;;;;;;;;;;12878152;23;20183;-75
2021/04/29 02:02:14;;;;;;;16.40;7.97;;;;;;;;;;12855371;22;20664;-74
2021/04/29 02:07:17;;;;;;;13.97;8.00;;;;;;;;;;12878973;23;20179;-75
2021/04/29 02:12:20;;;;;;;13.30;8.10;;;;;;;;;;12852220;23;20202;-74
2021/04/29 02:17:24;;;;;;;13.33;8.37;;;;;;;;;;12880273;23;20204;-74
2021/04/29 02:22:28;;;;;;;13.00;8.53;;;;;;;;;;12859756;23;20214;-74
2021/04/29 02:27:33;;;;;;;11.73;7.60;;;;;;;;;;12879528;23;20183;-74
2021/04/29 02:32:35;;;;;;;13.87;8.83;;;;;;;;;;12878722;23;20181;-74
2021/04/29 02:37:38;;;;;;;15.17;8.93;;;;;;;;;;12882982;23;20187;-73
2021/04/29 02:42:41;;;;;;;14.53;8.80;;;;;;;;;;12875521;23;20743;-73
2021/04/29 02:47:44;;;;;;;13.00;8.47;;;;;;;;;;12879323;23;20198;-74
2021/04/29 02:52:48;;;;;;;17.43;8.90;;;;;;;;;;12861146;23;20189;-74
2021/04/29 02:57:58;;;;;;;14.13;8.33;;;;;;;;;;12881516;23;20171;-73
2021/04/29 03:03:00;;;;;;;15.40;9.30;;;;;;;;;;12857130;22;20217;-74
2021/04/29 03:08:03;;;;;;;18.30;9.57;;;;;;;;;;12882893;23;20179;-74
2021/04/29 03:13:05;;;;;;;18.90;9.60;;;;;;;;;;12879951;23;20183;-73
2021/04/29 03:18:07;;;;;;;14.90;8.70;;;;;;;;;;12882492;23;20197;-73
2021/04/29 03:23:14;;;;;;;16.10;8.97;;;;;;;;;;12883921;23;20195;-75
2021/04/29 03:28:18;;;;;;;18.43;9.10;;;;;;;;;;12880713;23;20183;-76
2021/04/29 03:33:20;;;;;;;17.17;9.83;;;;;;;;;;12855224;23;20179;-76
2021/04/29 03:38:23;;;;;;;16.60;9.37;;;;;;;;;;12862398;23;20184;-74
2021/04/29 03:43:25;;;;;;;15.13;9.00;;;;;;;;;;12860179;23;20483;-73
2021/04/29 03:48:28;;;;;;;18.13;9.17;;;;;;;;;;12884400;23;20592;-73
2021/04/29 03:53:30;;;;;;;18.03;9.07;;;;;;;;;;12885401;23;20183;-73
2021/04/29 03:58:34;;;;;;;16.57;9.63;;;;;;;;;;12861774;23;20167;-73
2021/04/29 04:03:36;;;;;;;17.23;9.73;;;;;;;;;;12863564;22;20221;-73
2021/04/29 04:08:37;;;;;;;15.07;9.27;;;;;;;;;;12862536;23;20398;-73
2021/04/29 04:13:41;;;;;;;18.97;9.77;;;;;;;;;;12882278;23;20516;-73
2021/04/29 04:18:44;;;;;;;19.37;10.03;;;;;;;;;;12860395;23;20203;-73
2021/04/29 04:23:46;;;;;;;17.77;9.77;;;;;;;;;;12885620;23;20288;-72
2021/04/29 04:28:49;;;;;;;18.17;9.73;;;;;;;;;;12857261;23;20713;-74
2021/04/29 04:33:51;;;;;;;14.80;9.93;;;;;;;;;;12886121;23;20254;-72
2021/04/29 04:38:53;;;;;;;21.50;10.60;;;;;;;;;;12882172;23;20302;-72
2021/04/29 04:43:56;;;;;;;18.10;10.20;;;;;;;;;;12881270;23;20206;-73
2021/04/29 04:48:58;;;;;;;17.53;10.50;;;;;;;;;;12860992;23;20444;-73
2021/04/29 04:54:00;;;;;;;13.60;9.13;;;;;;;;;;12865449;23;20206;-72
2021/04/29 04:59:03;;;;;;;15.83;9.60;;;;;;;;;;12856520;23;20186;-75
2021/04/29 05:04:06;;;;;;;17.67;9.80;;;;;;;;;;12861884;22;20957;-73
2021/04/29 05:09:08;;;;;;;16.57;9.80;;;;;;;;;;12878895;23;20179;-77
2021/04/29 05:14:11;;;;;;;17.70;9.80;;;;;;;;;;12883579;23;20175;-79
2021/04/29 05:19:13;;;;;;;15.77;9.83;;;;;;;;;;12864112;23;20182;-74
2021/04/29 05:24:16;;;;;;;17.33;9.33;;;;;;;;;;12863019;23;20207;-78
2021/04/29 05:29:19;;;;;;;16.57;9.30;;;;;;;;;;12882867;23;20183;-72
2021/04/29 05:34:21;;;;;;;16.40;9.40;;;;;;;;;;12863276;23;20229;-72
2021/04/29 05:39:23;;;;;;;17.67;9.23;;;;;;;;;;12882700;23;20187;-72
2021/04/29 05:44:25;;;;;;;19.37;8.70;;;;;;;;;;12871622;23;20199;-72
2021/04/29 05:49:27;;;;;;;11.90;7.80;;;;;;;;;;12856437;23;20179;-71
2021/04/29 05:54:29;;;;;;;15.70;8.40;;;;;;;;;;12857594;23;20182;-72
2021/04/29 05:59:32;;;;;;;14.90;8.60;;;;;;;;;;12855827;23;20175;-72
2021/04/29 06:04:34;;;;;;;13.67;8.20;;;;;;;;;;12861857;22;20214;-72
2021/04/29 06:09:37;;;;;;;18.17;8.60;;;;;;;;;;12863618;23;20186;-71
2021/04/29 06:14:39;;;;;;;13.27;7.87;;;;;;;;;;12859190;23;20179;-72
2021/04/29 06:19:41;;;;;;;15.43;7.80;;;;;;;;;;12863877;23;20182;-72
2021/04/29 06:24:44;;;;;;;20.60;8.93;;;;;;;;;;12862354;23;20213;-73
2021/04/29 06:29:46;;;;;;;14.63;7.63;;;;;;;;;;12882916;23;20187;-73
2021/04/29 06:34:48;;;;;;;14.47;7.87;;;;;;;;;;12882462;23;20570;-73
2021/04/29 06:39:51;;;;;;;16.77;8.13;;;;;;;;;;12860470;23;20179;-72
2021/04/29 06:44:53;;;;;;;14.53;7.47;;;;;;;;;;12859006;23;20254;-72
2021/04/29 06:49:55;;;;;;;17.93;8.17;;;;;;;;;;12864390;23;20241;-72
2021/04/29 06:54:57;;;;;;;13.93;8.40;;;;;;;;;;12859625;23;20988;-72
2021/04/29 07:00:01;;;;;;;17.87;8.10;;;;;;;;;;12857662;23;20682;-72
2021/04/29 07:05:03;;;;;;;13.00;7.93;;;;;;;;;;12882701;22;20650;-73
2021/04/29 07:10:05;;;;;;;17.97;7.90;;;;;;;;;;12865495;23;20182;-72
2021/04/29 07:15:08;;;;;;;13.10;7.20;;;;;;;;;;12859964;23;20175;-72
2021/04/29 07:20:11;;;;;;;13.83;7.53;;;;;;;;;;12866464;23;20171;-72
2021/04/29 07:25:13;;;;;;;15.60;8.50;;;;;;;;;;12864711;23;20201;-72
2021/04/29 07:30:16;;;;;;;16.53;8.23;;;;;;;;;;12859547;23;21155;-74
2021/04/29 07:35:18;;;;;;;14.07;8.30;;;;;;;;;;12866210;23;20562;-74
2021/04/29 07:40:20;;;;;;;14.93;7.97;;;;;;;;;;12865467;23;20293;-73
2021/04/29 07:45:23;;;;;;;17.17;8.77;;;;;;;;;;12860133;23;20230;-73
2021/04/29 07:50:27;;;;;;;13.93;8.57;;;;;;;;;;12864580;23;20182;-72
2021/04/29 07:55:31;;;;;;;13.97;7.77;;;;;;;;;;12890316;23;20175;-74
2021/04/29 08:00:34;;;;;;;15.27;7.80;;;;;;;;;;12856810;23;20207;-73
2021/04/29 08:05:36;;;;;;;14.53;8.77;;;;;;;;;;12866579;22;20195;-73
2021/04/29 08:10:41;;;;;;;22.03;9.20;;;;;;;;;;12862082;23;20182;-73
2021/04/29 08:15:44;;;;;;;15.77;8.63;;;;;;;;;;12859666;23;20694;-74
2021/04/29 08:20:46;;;;;;;14.87;9.03;;;;;;;;;;12863242;23;20211;-73
2021/04/29 08:25:49;;;;;;;16.80;9.20;;;;;;;;;;12863901;23;20566;-73
2021/04/29 08:30:52;;;;;;;16.37;8.50;;;;;;;;;;12860265;23;20178;-72
2021/04/29 08:35:54;;;;;;;16.83;8.63;;;;;;;;;;12863877;23;20246;-71
2021/04/29 08:40:56;;;;;;;13.20;8.00;;;;;;;;;;12880736;23;20202;-72
2021/04/29 08:45:59;;;;;;;12.53;7.77;;;;;;;;;;12878877;23;20179;-73
2021/04/29 08:51:03;;;;;;;12.07;7.50;;;;;;;;;;12860878;23;20258;-72
2021/04/29 08:56:05;;;;;;;16.93;8.20;;;;;;;;;;12861641;23;20595;-73
2021/04/29 09:01:09;;;;;;;13.20;7.70;;;;;;;;;;12876502;22;20202;-73
2021/04/29 09:06:11;;;;;;;12.83;7.73;;;;;;;;;;12863677;23;20180;-72
2021/04/29 09:11:14;;;;;;;16.23;8.20;;;;;;;;;;12859236;23;20197;-73
2021/04/29 09:16:17;;;;;;;15.33;8.27;;;;;;;;;;12858102;23;20186;-73
2021/04/29 09:21:19;;;;;;;13.00;8.27;;;;;;;;;;12857990;23;20549;-73
2021/04/29 09:26:21;;;;;;;14.60;9.17;;;;;;;;;;12861462;23;20655;-73
2021/04/29 09:31:24;;;;;;;16.67;9.20;;;;;;;;;;12854311;23;20175;-73
2021/04/29 09:36:27;;;;;;;13.73;8.40;;;;;;;;;;12883075;23;20171;-72
2021/04/29 09:41:30;;;;;;;17.53;9.00;;;;;;;;;;12881976;23;20261;-72
2021/04/29 09:46:39;;;;;;;18.27;8.80;;;;;;;;;;12855908;23;20182;-72
2021/04/29 09:51:41;;;;;;;13.37;8.80;;;;;;;;;;12878700;23;20244;-72
2021/04/29 09:56:51;;;;;;;15.80;8.30;;;;;;;;;;12878682;23;20506;-73
2021/04/29 10:01:55;;;;;;;14.80;8.77;;;;;;;;;;12877663;22;20273;-73
2021/04/29 10:07:00;;;;;;;15.40;8.67;;;;;;;;;;12858777;23;20197;-72
2021/04/29 10:12:04;;;;;;;17.93;8.73;;;;;;;;;;12856587;23;20596;-72
2021/04/29 10:17:07;;;;;;;11.80;7.50;;;;;;;;;;12855646;23;20503;-72
2021/04/29 10:22:12;;;;;;;14.43;8.60;;;;;;;;;;12858796;23;20202;-72
2021/04/29 10:27:16;;;;;;;15.57;8.47;;;;;;;;;;12880456;23;20209;-72
2021/04/29 10:32:19;;;;;;;13.47;8.47;;;;;;;;;;12851972;23;20171;-72
2021/04/29 10:37:23;;;;;;;12.83;8.13;;;;;;;;;;12878352;23;20691;-72
2021/04/29 10:42:28;;;;;;;14.97;8.63;;;;;;;;;;12855288;23;20225;-72
2021/04/29 10:47:31;;;;;;;12.30;8.40;;;;;;;;;;12852346;23;20197;-72
2021/04/29 10:52:45;;;;;;;13.13;8.50;;;;;;;;;;12860964;23;20222;-72
2021/04/29 10:57:47;;;;;;;10.30;7.30;;;;;;;;;;12857603;23;20167;-73
2021/04/29 11:02:58;;;;;;;14.10;8.23;;;;;;;;;;12857517;22;20547;-74
2021/04/29 11:08:02;;;;;;;10.07;6.97;;;;;;;;;;12860347;23;20563;-73
2021/04/29 11:13:06;;;;;;;10.63;6.97;;;;;;;;;;12860944;23;20553;-71
2021/04/29 11:18:09;;;;;;;9.40;6.17;;;;;;;;;;12857580;23;20175;-72
2021/04/29 11:23:12;;;;;;;8.37;5.53;;;;;;;;;;12858869;23;20246;-73
2021/04/29 11:28:15;;;;;;;10.63;6.90;;;;;;;;;;12855431;23;20234;-72
2021/04/29 11:33:18;;;;;;;12.80;6.90;;;;;;;;;;12854601;23;20422;-73
2021/04/29 11:38:20;;;;;;;10.97;6.80;;;;;;;;;;12852066;23;20190;-73
2021/04/29 11:43:22;;;;;;;9.70;7.10;;;;;;;;;;12854300;23;20789;-73
2021/04/29 11:48:25;;;;;;;10.67;7.03;;;;;;;;;;12852891;23;20199;-72
2021/04/29 11:53:28;;;;;;;11.43;7.63;;;;;;;;;;12858325;23;20175;-72
2021/04/29 11:58:30;;;;;;;11.57;7.30;;;;;;;;;;12855063;23;20179;-72
2021/04/29 12:03:33;;;;;;;11.80;7.40;;;;;;;;;;12854482;22;20206;-72
2021/04/29 12:08:35;;;;;;;10.50;6.57;;;;;;;;;;12878584;23;20175;-72
2021/04/29 12:13:39;;;;;;;9.93;6.90;;;;;;;;;;12850503;23;20254;-72
2021/04/29 12:18:43;;;;;;;10.63;6.87;;;;;;;;;;12878507;23;20562;-73
2021/04/29 12:23:45;;;;;;;10.40;6.47;;;;;;;;;;12855901;23;20309;-72
2021/04/29 12:28:47;;;;;;;11.33;6.60;;;;;;;;;;12855650;23;20613;-73
2021/04/29 12:33:50;;;;;;;12.37;6.67;;;;;;;;;;12874264;23;20267;-73
2021/04/29 12:38:53;;;;;;;11.33;6.10;;;;;;;;;;12858522;23;20182;-73
2021/04/29 12:43:56;;;;;;;10.50;5.70;;;;;;;;;;12853214;23;20207;-72
2021/04/29 12:48:59;;;;;;;8.47;5.30;;;;;;;;;;12859782;23;20181;-72
2021/04/29 12:54:13;;;;;;;9.13;5.60;;;;;;;;;;12856617;23;20175;-73
2021/04/29 12:59:16;;;;;;;8.97;5.30;;;;;;;;;;12878353;23;21032;-74
2021/04/29 13:04:19;;;;;;;11.17;5.50;;;;;;;;;;12860363;22;20214;-73
2021/04/29 13:09:21;;;;;;;10.53;5.80;;;;;;;;;;12861967;23;20175;-73
2021/04/29 13:14:28;;;;;;;11.50;5.40;;;;;;;;;;12856362;23;20617;-73
2021/04/29 13:19:31;;;;;;;11.13;5.30;;;;;;;;;;12861930;23;20621;-73
2021/04/29 13:24:34;;;;;;;14.87;5.00;;;;;;;;;;12880494;23;20207;-72
2021/04/29 13:29:36;;;;;;;9.90;5.37;;;;;;;;;;12857002;23;20317;-73
2021/04/29 13:34:41;;;;;;;10.47;5.80;;;;;;;;;;12859339;23;20246;-72
2021/04/29 13:40:06;;;;;;;12.17;5.13;;;;;;;;;;12859679;23;20333;-72
2021/04/29 13:45:08;;;;;;;10.57;5.33;;;;;;;;;;12876213;23;20215;-72
2021/04/29 13:50:12;;;;;;;11.13;5.00;;;;;;;;;;12860640;23;21176;-73
2021/04/29 13:55:14;;;;;;;12.97;4.77;;;;;;;;;;12857536;23;20206;-72
2021/04/29 14:00:16;;;;;;;9.40;4.73;;;;;;;;;;12857498;23;20214;-73
2021/04/29 14:05:19;;;;;;;10.83;5.07;;;;;;;;;;12862829;22;20215;-73
2021/04/29 14:10:22;;;;;;;8.60;4.53;;;;;;;;;;12858219;23;20923;-73
2021/04/29 14:15:24;;;;;;;10.07;4.73;;;;;;;;;;12855292;23;20258;-73
2021/04/29 14:20:26;;;;;;;11.90;4.60;;;;;;;;;;12858901;23;20175;-72
2021/04/29 14:25:29;;;;;;;8.77;4.80;;;;;;;;;;12858396;23;20241;-73
2021/04/29 14:30:31;;;;;;;9.87;4.40;;;;;;;;;;12876345;23;20201;-73
2021/04/29 14:35:34;;;;;;;11.30;4.70;;;;;;;;;;12861626;23;20911;-73
2021/04/29 14:40:36;;;;;;;7.73;4.13;;;;;;;;;;12857217;23;20212;-73
2021/04/29 14:45:38;;;;;;;11.13;4.47;;;;;;;;;;12854261;23;20217;-72
2021/04/29 14:50:41;;;;;;;8.83;4.30;;;;;;;;;;12859627;23;20183;-72
2021/04/29 14:55:43;;;;;;;9.53;4.70;;;;;;;;;;12880757;23;20183;-73
2021/04/29 15:00:45;;;;;;;11.73;4.73;;;;;;;;;;12852716;23;20684;-73
2021/04/29 15:05:49;;;;;;;14.00;5.37;;;;;;;;;;12859469;22;20219;-72
2021/04/29 15:10:52;;;;;;;9.77;4.70;;;;;;;;;;12854880;23;20177;-72
2021/04/29 15:16:02;;;;;;;11.27;5.03;;;;;;;;;;12871998;23;20174;-72
2021/04/29 15:21:06;;;;;;;11.97;4.87;;;;;;;;;;12855717;23;20663;-73
2021/04/29 15:26:08;;;;;;;8.87;4.63;;;;;;;;;;12857209;23;20524;-72
2021/04/29 15:31:11;;;;;;;14.23;5.47;;;;;;;;;;12850729;23;20885;-72
2021/04/29 15:36:14;;;;;;;11.90;5.07;;;;;;;;;;12859950;23;20246;-72
2021/04/29 15:41:17;;;;;;;15.33;5.70;;;;;;;;;;12855038;23;20488;-72
2021/04/29 15:46:18;;;;;;;13.90;5.47;;;;;;;;;;12853221;23;20182;-73
2021/04/29 15:51:21;;;;;;;11.90;5.93;;;;;;;;;;12877354;23;20190;-72
2021/04/29 15:56:25;;;;;;;12.33;5.60;;;;;;;;;;12858477;23;20230;-73
2021/04/29 16:01:27;;;;;;;11.23;5.40;;;;;;;;;;12850363;22;20232;-73
2021/04/29 16:06:31;;;;;;;13.07;5.73;;;;;;;;;;12881200;23;20175;-72
2021/04/29 16:11:33;;;;;;;13.40;5.63;;;;;;;;;;12857024;23;20488;-72
2021/04/29 16:16:37;;;;;;;16.30;5.40;;;;;;;;;;12876959;23;20175;-74
2021/04/29 16:21:43;;;;;;;11.33;5.80;;;;;;;;;;12860955;23;20591;-73
2021/04/29 16:26:45;;;;;;;11.40;5.00;;;;;;;;;;12881397;23;20171;-73
2021/04/29 16:32:01;;;;;;;13.10;5.60;;;;;;;;;;12871945;23;20884;-73
2021/04/29 16:37:04;;;;;;;15.00;6.20;;;;;;;;;;12861207;23;20310;-74
2021/04/29 16:42:07;;;;;;;15.27;5.93;;;;;;;;;;12877590;23;20202;-73
2021/04/29 16:47:09;;;;;;;17.90;6.07;;;;;;;;;;12855146;23;20229;-72
2021/04/29 16:52:13;;;;;;;15.83;5.83;;;;;;;;;;12858391;23;20274;-72
2021/04/29 16:57:15;;;;;;;15.13;5.73;;;;;;;;;;12879631;23;20250;-73
2021/04/29 17:02:18;;;;;;;15.23;5.50;;;;;;;;;;12880330;22;20251;-74
2021/04/29 17:07:20;;;;;;;14.23;5.70;;;;;;;;;;12857930;23;20175;-73
2021/04/29 17:12:22;;;;;;;19.23;6.27;;;;;;;;;;12856926;23;20171;-74
2021/04/29 17:17:24;;;;;;;14.87;6.30;;;;;;;;;;12875481;23;20174;-73
2021/04/29 17:22:28;;;;;;;16.13;5.87;;;;;;;;;;12877258;23;20195;-72
2021/04/29 17:27:29;;;;;;;15.47;5.90;;;;;;;;;;12854242;23;20568;-73
2021/04/29 17:32:31;;;;;;;17.23;6.30;;;;;;;;;;12874985;23;20493;-73
2021/04/29 17:37:34;;;;;;;15.17;6.70;;;;;;;;;;12870329;23;20538;-72
2021/04/29 17:42:37;;;;;;;14.17;5.67;;;;;;;;;;12852030;23;20352;-74
2021/04/29 17:47:39;;;;;;;17.67;6.27;;;;;;;;;;12851499;23;20202;-72
2021/04/29 17:52:43;;;;;;;17.70;5.63;;;;;;;;;;12853726;23;20258;-73
2021/04/29 17:57:46;;;;;;;16.27;6.40;;;;;;;;;;12850252;23;20179;-73
2021/04/29 18:02:47;;;;;;;16.60;6.03;;;;;;;;;;12873514;22;20222;-73
2021/04/29 18:07:50;;;;;;;19.50;6.27;;;;;;;;;;12867246;23;20183;-72
2021/04/29 18:12:53;;;;;;;22.43;6.00;;;;;;;;;;12873872;23;20718;-72
2021/04/29 18:17:55;;;;;;;18.37;6.00;;;;;;;;;;12852190;23;20708;-72
2021/04/29 18:22:59;;;;;;;13.97;5.10;;;;;;;;;;12852827;23;20198;-72
2021/04/29 18:28:01;;;;;;;17.23;4.93;;;;;;;;;;12848367;23;20185;-73
2021/04/29 18:33:03;;;;;;;17.13;5.63;;;;;;;;;;12852084;23;20570;-74
2021/04/29 18:38:10;;;;;;;15.17;5.60;;;;;;;;;;12867266;23;20187;-72
2021/04/29 18:43:13;;;;;;;15.40;5.40;;;;;;;;;;12850679;23;20711;-72
2021/04/29 18:48:15;;;;;;;13.40;5.30;;;;;;;;;;12851162;23;20179;-73
2021/04/29 18:53:18;;;;;;;17.50;5.33;;;;;;;;;;12853421;23;20174;-72
2021/04/29 18:58:21;;;;;;;16.60;5.53;;;;;;;;;;12850740;23;20699;-72
2021/04/29 19:03:23;;;;;;;18.13;5.40;;;;;;;;;;12874278;22;20222;-71
2021/04/29 19:08:29;;;;;;;15.03;5.20;;;;;;;;;;12852050;23;20399;-72
2021/04/29 19:13:32;;;;;;;15.47;5.60;;;;;;;;;;12878253;23;20175;-72
2021/04/29 19:18:35;;;;;;;17.20;5.53;;;;;;;;;;12853848;23;20249;-71
2021/04/29 19:23:39;;;;;;;15.80;5.60;;;;;;;;;;12860525;23;20202;-71
2021/04/29 19:28:41;;;;;;;15.87;5.50;;;;;;;;;;12850160;23;20652;-72
2021/04/29 19:33:43;;;;;;;15.93;5.97;;;;;;;;;;12853504;23;20179;-74
2021/04/29 19:38:47;;;;;;;13.93;5.83;;;;;;;;;;12880492;23;20194;-72
2021/04/29 19:43:50;;;;;;;15.67;5.60;;;;;;;;;;12851801;23;20202;-72
2021/04/29 19:48:52;;;;;;;17.57;6.20;;;;;;;;;;12854996;23;20175;-72
2021/04/29 19:53:55;;;;;;;13.13;5.40;;;;;;;;;;12855835;23;20194;-73
2021/04/29 19:58:58;;;;;;;17.27;5.57;;;;;;;;;;12851816;23;20175;-73
2021/04/29 20:04:00;;;;;;;14.10;5.73;;;;;;;;;;12856529;22;20211;-72
2021/04/29 20:09:05;;;;;;;17.20;6.37;;;;;;;;;;12859288;23;20185;-71
